sensor_id;sensor_type;location;lat;lon;timestamp;P1;durP1;ratioP1;P2;durP2;ratioP2
7334;SDS011;3708;42.632;23.378;2022-12-18T00:01:19;4.53;;;3.93;;
7334;SDS011;3708;42.632;23.378;2022-12-18T00:03:48;5.50;;;4.60;;
7334;SDS011;3708;42.632;23.378;2022-12-18T00:06:15;5.97;;;4.40;;
7334;SDS011;3708;42.632;23.378;2022-12-18T00:08:43;7.60;;;4.80;;
7334;SDS011;3708;42.632;23.378;2022-12-18T00:11:11;5.77;;;4.80;;
7334;SDS011;3708;42.632;23.378;2022-12-18T00:13:40;5.47;;;4.47;;
7334;SDS011;3708;42.632;23.378;2022-12-18T00:16:16;5.57;;;4.50;;
7334;SDS011;3708;42.632;23.378;2022-12-18T00:18:46;6.53;;;5.37;;
7334;SDS011;3708;42.632;23.378;2022-12-18T00:21:14;6.03;;;5.03;;
7334;SDS011;3708;42.632;23.378;2022-12-18T00:23:43;7.27;;;5.00;;
7334;SDS011;3708;42.632;23.378;2022-12-18T00:26:14;5.40;;;4.50;;
7334;SDS011;3708;42.632;23.378;2022-12-18T00:28:44;5.50;;;4.40;;
7334;SDS011;3708;42.632;23.378;2022-12-18T00:31:15;5.87;;;4.70;;
7334;SDS011;3708;42.632;23.378;2022-12-18T00:33:43;7.07;;;5.37;;
7334;SDS011;3708;42.632;23.378;2022-12-18T00:36:11;6.57;;;4.90;;
7334;SDS011;3708;42.632;23.378;2022-12-18T00:38:40;5.90;;;4.50;;
7334;SDS011;3708;42.632;23.378;2022-12-18T00:41:10;6.47;;;5.00;;
7334;SDS011;3708;42.632;23.378;2022-12-18T00:43:39;6.87;;;5.27;;
7334;SDS011;3708;42.632;23.378;2022-12-18T00:46:05;5.87;;;4.70;;
7334;SDS011;3708;42.632;23.378;2022-12-18T00:48:35;8.07;;;5.77;;
7334;SDS011;3708;42.632;23.378;2022-12-18T00:51:03;6.97;;;5.30;;
7334;SDS011;3708;42.632;23.378;2022-12-18T00:53:29;7.80;;;5.90;;
7334;SDS011;3708;42.632;23.378;2022-12-18T00:55:56;7.23;;;5.57;;
7334;SDS011;3708;42.632;23.378;2022-12-18T00:58:23;5.53;;;4.40;;
7334;SDS011;3708;42.632;23.378;2022-12-18T01:00:50;7.27;;;5.70;;
7334;SDS011;3708;42.632;23.378;2022-12-18T01:03:18;8.50;;;6.43;;
7334;SDS011;3708;42.632;23.378;2022-12-18T01:05:46;9.93;;;6.73;;
7334;SDS011;3708;42.632;23.378;2022-12-18T01:08:13;9.07;;;6.73;;
7334;SDS011;3708;42.632;23.378;2022-12-18T01:10:40;10.53;;;7.10;;
7334;SDS011;3708;42.632;23.378;2022-12-18T01:13:07;9.27;;;6.73;;
7334;SDS011;3708;42.632;23.378;2022-12-18T01:15:34;10.70;;;6.57;;
7334;SDS011;3708;42.632;23.378;2022-12-18T01:18:01;13.47;;;8.00;;
7334;SDS011;3708;42.632;23.378;2022-12-18T01:20:32;12.27;;;8.40;;
7334;SDS011;3708;42.632;23.378;2022-12-18T01:23:01;8.57;;;6.83;;
7334;SDS011;3708;42.632;23.378;2022-12-18T01:25:29;9.07;;;6.53;;
7334;SDS011;3708;42.632;23.378;2022-12-18T01:27:56;10.20;;;7.40;;
7334;SDS011;3708;42.632;23.378;2022-12-18T01:30:23;8.60;;;6.87;;
7334;SDS011;3708;42.632;23.378;2022-12-18T01:32:50;11.17;;;6.80;;
7334;SDS011;3708;42.632;23.378;2022-12-18T01:35:17;9.03;;;6.63;;
7334;SDS011;3708;42.632;23.378;2022-12-18T01:37:44;9.80;;;7.03;;
7334;SDS011;3708;42.632;23.378;2022-12-18T01:40:12;10.50;;;7.33;;
7334;SDS011;3708;42.632;23.378;2022-12-18T01:42:39;7.60;;;6.20;;
7334;SDS011;3708;42.632;23.378;2022-12-18T01:45:09;10.17;;;7.47;;
7334;SDS011;3708;42.632;23.378;2022-12-18T01:47:50;10.13;;;6.70;;
7334;SDS011;3708;42.632;23.378;2022-12-18T01:50:20;9.07;;;7.17;;
7334;SDS011;3708;42.632;23.378;2022-12-18T01:52:50;10.00;;;7.23;;
7334;SDS011;3708;42.632;23.378;2022-12-18T01:55:22;9.43;;;7.50;;
7334;SDS011;3708;42.632;23.378;2022-12-18T01:57:51;8.50;;;6.67;;
7334;SDS011;3708;42.632;23.378;2022-12-18T02:00:20;9.13;;;6.37;;
7334;SDS011;3708;42.632;23.378;2022-12-18T02:02:49;8.43;;;6.17;;
7334;SDS011;3708;42.632;23.378;2022-12-18T02:05:17;10.67;;;7.00;;
7334;SDS011;3708;42.632;23.378;2022-12-18T02:07:58;8.33;;;7.10;;
7334;SDS011;3708;42.632;23.378;2022-12-18T02:10:33;9.90;;;8.03;;
7334;SDS011;3708;42.632;23.378;2022-12-18T02:13:09;10.10;;;7.30;;
7334;SDS011;3708;42.632;23.378;2022-12-18T02:15:41;9.43;;;7.37;;
7334;SDS011;3708;42.632;23.378;2022-12-18T02:18:17;10.93;;;7.93;;
7334;SDS011;3708;42.632;23.378;2022-12-18T02:20:48;9.43;;;6.90;;
7334;SDS011;3708;42.632;23.378;2022-12-18T02:23:24;13.13;;;8.57;;
7334;SDS011;3708;42.632;23.378;2022-12-18T02:26:19;12.13;;;8.70;;
7334;SDS011;3708;42.632;23.378;2022-12-18T02:28:51;11.73;;;8.80;;
7334;SDS011;3708;42.632;23.378;2022-12-18T02:31:22;11.23;;;7.93;;
7334;SDS011;3708;42.632;23.378;2022-12-18T02:33:50;9.93;;;7.93;;
7334;SDS011;3708;42.632;23.378;2022-12-18T02:36:20;9.50;;;8.03;;
7334;SDS011;3708;42.632;23.378;2022-12-18T02:38:49;13.30;;;8.67;;
7334;SDS011;3708;42.632;23.378;2022-12-18T02:41:21;11.47;;;7.60;;
7334;SDS011;3708;42.632;23.378;2022-12-18T02:43:49;11.37;;;8.17;;
7334;SDS011;3708;42.632;23.378;2022-12-18T02:46:27;10.67;;;7.87;;
7334;SDS011;3708;42.632;23.378;2022-12-18T02:49:00;10.10;;;7.67;;
7334;SDS011;3708;42.632;23.378;2022-12-18T02:51:34;14.07;;;9.07;;
7334;SDS011;3708;42.632;23.378;2022-12-18T02:54:08;10.90;;;7.47;;
7334;SDS011;3708;42.632;23.378;2022-12-18T02:56:42;10.37;;;7.30;;
7334;SDS011;3708;42.632;23.378;2022-12-18T02:59:17;9.77;;;7.53;;
7334;SDS011;3708;42.632;23.378;2022-12-18T03:01:50;10.70;;;7.73;;
7334;SDS011;3708;42.632;23.378;2022-12-18T03:04:23;10.87;;;7.43;;
7334;SDS011;3708;42.632;23.378;2022-12-18T03:06:54;9.50;;;6.97;;
7334;SDS011;3708;42.632;23.378;2022-12-18T03:09:25;9.80;;;7.80;;
7334;SDS011;3708;42.632;23.378;2022-12-18T03:11:58;10.67;;;7.47;;
7334;SDS011;3708;42.632;23.378;2022-12-18T03:14:59;10.60;;;8.10;;
7334;SDS011;3708;42.632;23.378;2022-12-18T03:17:30;9.23;;;7.37;;
7334;SDS011;3708;42.632;23.378;2022-12-18T03:19:59;10.07;;;7.43;;
7334;SDS011;3708;42.632;23.378;2022-12-18T03:22:32;10.10;;;8.10;;
7334;SDS011;3708;42.632;23.378;2022-12-18T03:25:03;10.23;;;8.37;;
7334;SDS011;3708;42.632;23.378;2022-12-18T03:27:34;10.43;;;7.50;;
7334;SDS011;3708;42.632;23.378;2022-12-18T03:30:04;10.30;;;7.40;;
7334;SDS011;3708;42.632;23.378;2022-12-18T03:32:36;10.43;;;7.83;;
7334;SDS011;3708;42.632;23.378;2022-12-18T03:35:07;10.50;;;7.70;;
7334;SDS011;3708;42.632;23.378;2022-12-18T03:37:37;9.90;;;7.50;;
7334;SDS011;3708;42.632;23.378;2022-12-18T03:40:05;10.80;;;6.97;;
7334;SDS011;3708;42.632;23.378;2022-12-18T03:42:36;11.47;;;7.27;;
7334;SDS011;3708;42.632;23.378;2022-12-18T03:45:10;9.97;;;7.43;;
7334;SDS011;3708;42.632;23.378;2022-12-18T03:47:41;9.40;;;7.50;;
7334;SDS011;3708;42.632;23.378;2022-12-18T03:50:19;8.33;;;7.23;;
7334;SDS011;3708;42.632;23.378;2022-12-18T03:52:49;9.00;;;7.07;;
7334;SDS011;3708;42.632;23.378;2022-12-18T03:55:20;12.73;;;7.63;;
7334;SDS011;3708;42.632;23.378;2022-12-18T03:57:50;9.17;;;6.73;;
7334;SDS011;3708;42.632;23.378;2022-12-18T04:00:19;10.37;;;7.10;;
7334;SDS011;3708;42.632;23.378;2022-12-18T04:02:50;8.10;;;5.80;;
7334;SDS011;3708;42.632;23.378;2022-12-18T04:05:21;11.47;;;7.53;;
7334;SDS011;3708;42.632;23.378;2022-12-18T04:07:57;7.67;;;6.13;;
7334;SDS011;3708;42.632;23.378;2022-12-18T04:10:27;9.97;;;5.77;;
7334;SDS011;3708;42.632;23.378;2022-12-18T04:13:02;6.80;;;5.93;;
7334;SDS011;3708;42.632;23.378;2022-12-18T04:15:35;5.70;;;5.00;;
7334;SDS011;3708;42.632;23.378;2022-12-18T04:18:10;9.93;;;6.50;;
7334;SDS011;3708;42.632;23.378;2022-12-18T04:20:39;9.17;;;6.73;;
7334;SDS011;3708;42.632;23.378;2022-12-18T04:23:07;7.33;;;5.57;;
7334;SDS011;3708;42.632;23.378;2022-12-18T04:25:36;7.37;;;5.90;;
7334;SDS011;3708;42.632;23.378;2022-12-18T04:28:13;6.53;;;5.47;;
7334;SDS011;3708;42.632;23.378;2022-12-18T04:30:49;8.13;;;5.50;;
7334;SDS011;3708;42.632;23.378;2022-12-18T04:33:19;7.10;;;5.83;;
7334;SDS011;3708;42.632;23.378;2022-12-18T04:35:46;10.37;;;5.83;;
7334;SDS011;3708;42.632;23.378;2022-12-18T04:38:13;9.30;;;7.23;;
7334;SDS011;3708;42.632;23.378;2022-12-18T04:40:45;7.80;;;5.40;;
7334;SDS011;3708;42.632;23.378;2022-12-18T04:43:18;8.83;;;6.30;;
7334;SDS011;3708;42.632;23.378;2022-12-18T04:45:45;8.47;;;6.73;;
7334;SDS011;3708;42.632;23.378;2022-12-18T04:48:14;9.10;;;6.63;;
7334;SDS011;3708;42.632;23.378;2022-12-18T04:50:41;10.57;;;7.53;;
7334;SDS011;3708;42.632;23.378;2022-12-18T04:53:08;11.80;;;7.70;;
7334;SDS011;3708;42.632;23.378;2022-12-18T04:55:35;8.93;;;6.23;;
7334;SDS011;3708;42.632;23.378;2022-12-18T04:58:02;10.50;;;6.87;;
7334;SDS011;3708;42.632;23.378;2022-12-18T05:00:30;9.83;;;7.67;;
7334;SDS011;3708;42.632;23.378;2022-12-18T05:02:57;10.10;;;6.97;;
7334;SDS011;3708;42.632;23.378;2022-12-18T05:05:26;11.13;;;6.77;;
7334;SDS011;3708;42.632;23.378;2022-12-18T05:07:53;11.80;;;7.37;;
7334;SDS011;3708;42.632;23.378;2022-12-18T05:10:20;12.63;;;7.57;;
7334;SDS011;3708;42.632;23.378;2022-12-18T05:12:47;10.30;;;6.97;;
7334;SDS011;3708;42.632;23.378;2022-12-18T05:15:27;10.30;;;7.60;;
7334;SDS011;3708;42.632;23.378;2022-12-18T05:17:57;12.67;;;8.30;;
7334;SDS011;3708;42.632;23.378;2022-12-18T05:20:25;11.50;;;7.30;;
7334;SDS011;3708;42.632;23.378;2022-12-18T05:22:53;10.90;;;7.70;;
7334;SDS011;3708;42.632;23.378;2022-12-18T05:25:20;11.03;;;8.40;;
7334;SDS011;3708;42.632;23.378;2022-12-18T05:27:48;11.63;;;7.77;;
7334;SDS011;3708;42.632;23.378;2022-12-18T05:30:15;10.07;;;7.03;;
7334;SDS011;3708;42.632;23.378;2022-12-18T05:32:42;10.13;;;7.77;;
7334;SDS011;3708;42.632;23.378;2022-12-18T05:35:11;10.77;;;7.67;;
7334;SDS011;3708;42.632;23.378;2022-12-18T05:37:38;12.60;;;8.90;;
7334;SDS011;3708;42.632;23.378;2022-12-18T05:40:06;12.00;;;7.53;;
7334;SDS011;3708;42.632;23.378;2022-12-18T05:42:34;11.13;;;7.20;;
7334;SDS011;3708;42.632;23.378;2022-12-18T05:45:01;10.27;;;7.27;;
7334;SDS011;3708;42.632;23.378;2022-12-18T05:47:28;11.57;;;8.07;;
7334;SDS011;3708;42.632;23.378;2022-12-18T05:49:55;12.03;;;8.13;;
7334;SDS011;3708;42.632;23.378;2022-12-18T05:52:23;11.63;;;8.13;;
7334;SDS011;3708;42.632;23.378;2022-12-18T05:54:50;11.50;;;8.43;;
7334;SDS011;3708;42.632;23.378;2022-12-18T05:57:17;14.47;;;8.23;;
7334;SDS011;3708;42.632;23.378;2022-12-18T05:59:44;11.60;;;8.00;;
7334;SDS011;3708;42.632;23.378;2022-12-18T06:02:11;11.43;;;8.40;;
7334;SDS011;3708;42.632;23.378;2022-12-18T06:04:38;13.80;;;9.07;;
7334;SDS011;3708;42.632;23.378;2022-12-18T06:07:05;12.37;;;8.40;;
7334;SDS011;3708;42.632;23.378;2022-12-18T06:09:33;19.40;;;9.37;;
7334;SDS011;3708;42.632;23.378;2022-12-18T06:12:00;12.47;;;9.70;;
7334;SDS011;3708;42.632;23.378;2022-12-18T06:14:27;19.80;;;11.10;;
7334;SDS011;3708;42.632;23.378;2022-12-18T06:16:54;15.13;;;9.90;;
7334;SDS011;3708;42.632;23.378;2022-12-18T06:19:21;15.17;;;9.63;;
7334;SDS011;3708;42.632;23.378;2022-12-18T06:21:48;11.37;;;8.87;;
7334;SDS011;3708;42.632;23.378;2022-12-18T06:24:16;13.07;;;9.07;;
7334;SDS011;3708;42.632;23.378;2022-12-18T06:26:44;11.40;;;8.40;;
7334;SDS011;3708;42.632;23.378;2022-12-18T06:29:13;18.07;;;9.30;;
7334;SDS011;3708;42.632;23.378;2022-12-18T06:31:42;13.40;;;8.87;;
7334;SDS011;3708;42.632;23.378;2022-12-18T06:34:09;18.17;;;11.10;;
7334;SDS011;3708;42.632;23.378;2022-12-18T06:36:36;11.57;;;8.33;;
7334;SDS011;3708;42.632;23.378;2022-12-18T06:39:03;15.97;;;9.40;;
7334;SDS011;3708;42.632;23.378;2022-12-18T06:41:29;13.97;;;9.80;;
7334;SDS011;3708;42.632;23.378;2022-12-18T06:43:59;14.10;;;9.90;;
7334;SDS011;3708;42.632;23.378;2022-12-18T06:46:26;16.37;;;10.07;;
7334;SDS011;3708;42.632;23.378;2022-12-18T06:48:53;13.87;;;9.37;;
7334;SDS011;3708;42.632;23.378;2022-12-18T06:51:21;16.33;;;9.63;;
7334;SDS011;3708;42.632;23.378;2022-12-18T06:53:49;16.07;;;10.53;;
7334;SDS011;3708;42.632;23.378;2022-12-18T06:56:16;13.87;;;9.43;;
7334;SDS011;3708;42.632;23.378;2022-12-18T06:58:43;15.90;;;9.57;;
7334;SDS011;3708;42.632;23.378;2022-12-18T07:01:11;15.33;;;9.67;;
7334;SDS011;3708;42.632;23.378;2022-12-18T07:03:39;13.97;;;9.00;;
7334;SDS011;3708;42.632;23.378;2022-12-18T07:06:12;15.07;;;9.17;;
7334;SDS011;3708;42.632;23.378;2022-12-18T07:08:40;13.67;;;9.60;;
7334;SDS011;3708;42.632;23.378;2022-12-18T07:11:07;12.37;;;8.50;;
7334;SDS011;3708;42.632;23.378;2022-12-18T07:13:34;15.63;;;9.63;;
7334;SDS011;3708;42.632;23.378;2022-12-18T07:16:05;14.07;;;9.50;;
7334;SDS011;3708;42.632;23.378;2022-12-18T07:18:34;16.40;;;10.40;;
7334;SDS011;3708;42.632;23.378;2022-12-18T07:21:04;13.87;;;9.57;;
7334;SDS011;3708;42.632;23.378;2022-12-18T07:23:32;11.87;;;9.00;;
7334;SDS011;3708;42.632;23.378;2022-12-18T07:26:00;14.40;;;9.00;;
7334;SDS011;3708;42.632;23.378;2022-12-18T07:28:29;15.60;;;10.03;;
7334;SDS011;3708;42.632;23.378;2022-12-18T07:30:56;14.10;;;9.60;;
7334;SDS011;3708;42.632;23.378;2022-12-18T07:33:24;12.90;;;9.07;;
7334;SDS011;3708;42.632;23.378;2022-12-18T07:35:53;17.63;;;11.80;;
7334;SDS011;3708;42.632;23.378;2022-12-18T07:38:20;16.13;;;10.03;;
7334;SDS011;3708;42.632;23.378;2022-12-18T07:40:47;15.33;;;9.33;;
7334;SDS011;3708;42.632;23.378;2022-12-18T07:43:14;15.70;;;10.43;;
7334;SDS011;3708;42.632;23.378;2022-12-18T07:45:42;13.57;;;9.53;;
7334;SDS011;3708;42.632;23.378;2022-12-18T07:48:08;15.13;;;10.47;;
7334;SDS011;3708;42.632;23.378;2022-12-18T07:50:36;17.80;;;10.43;;
7334;SDS011;3708;42.632;23.378;2022-12-18T07:53:04;16.73;;;9.47;;
7334;SDS011;3708;42.632;23.378;2022-12-18T07:55:31;15.03;;;9.40;;
7334;SDS011;3708;42.632;23.378;2022-12-18T07:58:00;18.93;;;12.03;;
7334;SDS011;3708;42.632;23.378;2022-12-18T08:00:28;14.30;;;9.23;;
7334;SDS011;3708;42.632;23.378;2022-12-18T08:03:01;15.60;;;9.30;;
7334;SDS011;3708;42.632;23.378;2022-12-18T08:05:29;18.00;;;10.57;;
7334;SDS011;3708;42.632;23.378;2022-12-18T08:07:56;19.50;;;10.93;;
7334;SDS011;3708;42.632;23.378;2022-12-18T08:10:25;17.50;;;11.40;;
7334;SDS011;3708;42.632;23.378;2022-12-18T08:12:52;15.90;;;9.57;;
7334;SDS011;3708;42.632;23.378;2022-12-18T08:15:19;15.73;;;10.23;;
7334;SDS011;3708;42.632;23.378;2022-12-18T08:17:46;16.83;;;10.70;;
7334;SDS011;3708;42.632;23.378;2022-12-18T08:20:14;15.97;;;11.07;;
7334;SDS011;3708;42.632;23.378;2022-12-18T08:22:42;17.13;;;10.50;;
7334;SDS011;3708;42.632;23.378;2022-12-18T08:25:09;21.13;;;12.00;;
7334;SDS011;3708;42.632;23.378;2022-12-18T08:27:38;18.43;;;12.60;;
7334;SDS011;3708;42.632;23.378;2022-12-18T08:30:05;18.10;;;11.30;;
7334;SDS011;3708;42.632;23.378;2022-12-18T08:32:33;15.73;;;9.27;;
7334;SDS011;3708;42.632;23.378;2022-12-18T08:35:00;18.37;;;11.77;;
7334;SDS011;3708;42.632;23.378;2022-12-18T08:37:27;22.97;;;12.27;;
7334;SDS011;3708;42.632;23.378;2022-12-18T08:39:53;24.03;;;11.50;;
7334;SDS011;3708;42.632;23.378;2022-12-18T08:42:20;16.00;;;10.27;;
7334;SDS011;3708;42.632;23.378;2022-12-18T08:45:07;19.97;;;12.60;;
7334;SDS011;3708;42.632;23.378;2022-12-18T08:47:35;17.67;;;11.83;;
7334;SDS011;3708;42.632;23.378;2022-12-18T08:50:01;18.63;;;12.27;;
7334;SDS011;3708;42.632;23.378;2022-12-18T08:52:31;18.17;;;10.97;;
7334;SDS011;3708;42.632;23.378;2022-12-18T08:54:58;16.80;;;10.80;;
7334;SDS011;3708;42.632;23.378;2022-12-18T08:57:25;18.17;;;10.87;;
7334;SDS011;3708;42.632;23.378;2022-12-18T08:59:53;18.03;;;12.37;;
7334;SDS011;3708;42.632;23.378;2022-12-18T09:02:21;20.53;;;11.93;;
7334;SDS011;3708;42.632;23.378;2022-12-18T09:04:48;16.73;;;10.63;;
7334;SDS011;3708;42.632;23.378;2022-12-18T09:07:15;18.60;;;12.07;;
7334;SDS011;3708;42.632;23.378;2022-12-18T09:09:43;18.77;;;12.03;;
7334;SDS011;3708;42.632;23.378;2022-12-18T09:12:10;22.50;;;12.63;;
7334;SDS011;3708;42.632;23.378;2022-12-18T09:14:37;19.30;;;12.70;;
7334;SDS011;3708;42.632;23.378;2022-12-18T09:17:07;24.93;;;14.83;;
7334;SDS011;3708;42.632;23.378;2022-12-18T09:19:39;20.53;;;12.13;;
7334;SDS011;3708;42.632;23.378;2022-12-18T09:22:06;21.17;;;12.33;;
7334;SDS011;3708;42.632;23.378;2022-12-18T09:24:34;21.27;;;13.20;;
7334;SDS011;3708;42.632;23.378;2022-12-18T09:27:02;20.43;;;13.27;;
7334;SDS011;3708;42.632;23.378;2022-12-18T09:29:29;27.60;;;14.57;;
7334;SDS011;3708;42.632;23.378;2022-12-18T09:31:57;22.47;;;13.60;;
7334;SDS011;3708;42.632;23.378;2022-12-18T09:34:24;19.20;;;12.27;;
7334;SDS011;3708;42.632;23.378;2022-12-18T09:37:17;20.33;;;13.83;;
7334;SDS011;3708;42.632;23.378;2022-12-18T09:39:51;19.93;;;11.70;;
7334;SDS011;3708;42.632;23.378;2022-12-18T09:42:28;20.90;;;11.13;;
7334;SDS011;3708;42.632;23.378;2022-12-18T09:45:11;18.27;;;11.87;;
7334;SDS011;3708;42.632;23.378;2022-12-18T09:47:41;18.73;;;11.97;;
7334;SDS011;3708;42.632;23.378;2022-12-18T09:50:23;20.10;;;11.50;;
7334;SDS011;3708;42.632;23.378;2022-12-18T09:52:59;16.20;;;10.53;;
7334;SDS011;3708;42.632;23.378;2022-12-18T09:55:36;15.90;;;10.13;;
7334;SDS011;3708;42.632;23.378;2022-12-18T09:58:07;18.93;;;10.33;;
7334;SDS011;3708;42.632;23.378;2022-12-18T10:00:42;18.60;;;11.47;;
7334;SDS011;3708;42.632;23.378;2022-12-18T10:03:10;19.40;;;10.73;;
7334;SDS011;3708;42.632;23.378;2022-12-18T10:05:41;17.13;;;10.87;;
7334;SDS011;3708;42.632;23.378;2022-12-18T10:08:22;19.90;;;11.80;;
7334;SDS011;3708;42.632;23.378;2022-12-18T10:10:57;16.77;;;10.80;;
7334;SDS011;3708;42.632;23.378;2022-12-18T10:13:35;14.37;;;9.70;;
7334;SDS011;3708;42.632;23.378;2022-12-18T10:16:11;20.03;;;11.87;;
7334;SDS011;3708;42.632;23.378;2022-12-18T10:18:49;17.33;;;10.93;;
7334;SDS011;3708;42.632;23.378;2022-12-18T10:21:39;18.50;;;11.33;;
7334;SDS011;3708;42.632;23.378;2022-12-18T10:24:16;18.57;;;12.20;;
7334;SDS011;3708;42.632;23.378;2022-12-18T10:26:51;21.77;;;12.00;;
7334;SDS011;3708;42.632;23.378;2022-12-18T10:29:21;17.17;;;11.40;;
7334;SDS011;3708;42.632;23.378;2022-12-18T10:31:54;16.20;;;10.67;;
7334;SDS011;3708;42.632;23.378;2022-12-18T10:34:21;17.40;;;10.50;;
7334;SDS011;3708;42.632;23.378;2022-12-18T10:36:50;16.60;;;9.97;;
7334;SDS011;3708;42.632;23.378;2022-12-18T10:39:20;15.37;;;9.90;;
7334;SDS011;3708;42.632;23.378;2022-12-18T10:41:48;20.80;;;10.70;;
7334;SDS011;3708;42.632;23.378;2022-12-18T10:44:17;16.60;;;10.23;;
7334;SDS011;3708;42.632;23.378;2022-12-18T10:46:45;16.40;;;10.60;;
7334;SDS011;3708;42.632;23.378;2022-12-18T10:49:18;17.87;;;11.27;;
7334;SDS011;3708;42.632;23.378;2022-12-18T10:51:47;17.13;;;10.70;;
7334;SDS011;3708;42.632;23.378;2022-12-18T10:54:15;17.33;;;10.43;;
7334;SDS011;3708;42.632;23.378;2022-12-18T10:56:45;16.27;;;11.80;;
7334;SDS011;3708;42.632;23.378;2022-12-18T10:59:13;18.33;;;11.57;;
7334;SDS011;3708;42.632;23.378;2022-12-18T11:01:50;14.60;;;9.07;;
7334;SDS011;3708;42.632;23.378;2022-12-18T11:04:20;18.80;;;11.63;;
7334;SDS011;3708;42.632;23.378;2022-12-18T11:06:55;16.77;;;9.97;;
7334;SDS011;3708;42.632;23.378;2022-12-18T11:09:24;17.37;;;10.63;;
7334;SDS011;3708;42.632;23.378;2022-12-18T11:11:56;17.70;;;10.50;;
7334;SDS011;3708;42.632;23.378;2022-12-18T11:14:26;17.47;;;10.50;;
7334;SDS011;3708;42.632;23.378;2022-12-18T11:16:55;15.70;;;10.07;;
7334;SDS011;3708;42.632;23.378;2022-12-18T11:19:30;17.60;;;10.30;;
7334;SDS011;3708;42.632;23.378;2022-12-18T11:21:59;16.33;;;9.73;;
7334;SDS011;3708;42.632;23.378;2022-12-18T11:24:29;15.83;;;8.90;;
7334;SDS011;3708;42.632;23.378;2022-12-18T11:27:00;15.70;;;9.67;;
7334;SDS011;3708;42.632;23.378;2022-12-18T11:29:31;19.37;;;9.70;;
7334;SDS011;3708;42.632;23.378;2022-12-18T11:35:03;16.67;;;10.50;;
7334;SDS011;3708;42.632;23.378;2022-12-18T11:37:38;14.60;;;9.40;;
7334;SDS011;3708;42.632;23.378;2022-12-18T11:40:10;19.17;;;10.70;;
7334;SDS011;3708;42.632;23.378;2022-12-18T11:42:45;19.50;;;11.33;;
7334;SDS011;3708;42.632;23.378;2022-12-18T11:45:22;16.23;;;10.73;;
7334;SDS011;3708;42.632;23.378;2022-12-18T11:47:55;15.73;;;10.30;;
7334;SDS011;3708;42.632;23.378;2022-12-18T11:50:28;17.73;;;9.73;;
7334;SDS011;3708;42.632;23.378;2022-12-18T11:53:01;18.03;;;10.70;;
7334;SDS011;3708;42.632;23.378;2022-12-18T11:55:35;18.70;;;10.87;;
7334;SDS011;3708;42.632;23.378;2022-12-18T11:58:12;17.17;;;10.93;;
7334;SDS011;3708;42.632;23.378;2022-12-18T12:00:49;18.10;;;10.50;;
7334;SDS011;3708;42.632;23.378;2022-12-18T12:03:39;16.07;;;10.13;;
7334;SDS011;3708;42.632;23.378;2022-12-18T12:06:24;16.37;;;9.80;;
7334;SDS011;3708;42.632;23.378;2022-12-18T12:09:03;16.07;;;10.43;;
7334;SDS011;3708;42.632;23.378;2022-12-18T12:11:40;17.53;;;10.53;;
7334;SDS011;3708;42.632;23.378;2022-12-18T12:14:21;16.60;;;10.47;;
7334;SDS011;3708;42.632;23.378;2022-12-18T12:16:57;20.50;;;10.93;;
7334;SDS011;3708;42.632;23.378;2022-12-18T12:19:37;19.33;;;11.37;;
7334;SDS011;3708;42.632;23.378;2022-12-18T12:22:13;16.60;;;11.50;;
7334;SDS011;3708;42.632;23.378;2022-12-18T12:24:51;16.87;;;9.73;;
7334;SDS011;3708;42.632;23.378;2022-12-18T12:27:28;14.87;;;9.97;;
7334;SDS011;3708;42.632;23.378;2022-12-18T12:30:07;18.33;;;11.17;;
7334;SDS011;3708;42.632;23.378;2022-12-18T12:32:40;18.83;;;11.30;;
7334;SDS011;3708;42.632;23.378;2022-12-18T12:35:19;15.70;;;10.60;;
7334;SDS011;3708;42.632;23.378;2022-12-18T12:37:59;18.33;;;11.20;;
7334;SDS011;3708;42.632;23.378;2022-12-18T12:40:37;16.53;;;10.23;;
7334;SDS011;3708;42.632;23.378;2022-12-18T12:43:11;19.10;;;11.23;;
7334;SDS011;3708;42.632;23.378;2022-12-18T12:45:47;15.97;;;10.00;;
7334;SDS011;3708;42.632;23.378;2022-12-18T12:48:21;18.30;;;11.07;;
7334;SDS011;3708;42.632;23.378;2022-12-18T12:50:58;19.77;;;10.90;;
7334;SDS011;3708;42.632;23.378;2022-12-18T12:53:30;17.63;;;11.43;;
7334;SDS011;3708;42.632;23.378;2022-12-18T12:56:01;16.60;;;10.23;;
7334;SDS011;3708;42.632;23.378;2022-12-18T12:58:35;20.83;;;11.03;;
7334;SDS011;3708;42.632;23.378;2022-12-18T13:01:12;21.33;;;12.40;;
7334;SDS011;3708;42.632;23.378;2022-12-18T13:03:51;24.70;;;13.50;;
7334;SDS011;3708;42.632;23.378;2022-12-18T13:06:24;21.83;;;12.63;;
7334;SDS011;3708;42.632;23.378;2022-12-18T13:09:00;19.90;;;12.33;;
7334;SDS011;3708;42.632;23.378;2022-12-18T13:11:31;24.00;;;13.40;;
7334;SDS011;3708;42.632;23.378;2022-12-18T13:14:23;19.70;;;12.90;;
7334;SDS011;3708;42.632;23.378;2022-12-18T13:20:02;15.50;;;11.03;;
7334;SDS011;3708;42.632;23.378;2022-12-18T13:22:34;19.47;;;12.27;;
7334;SDS011;3708;42.632;23.378;2022-12-18T13:25:27;20.10;;;11.60;;
7334;SDS011;3708;42.632;23.378;2022-12-18T13:28:01;20.07;;;13.20;;
7334;SDS011;3708;42.632;23.378;2022-12-18T13:30:46;20.83;;;13.47;;
7334;SDS011;3708;42.632;23.378;2022-12-18T13:33:38;20.77;;;11.63;;
7334;SDS011;3708;42.632;23.378;2022-12-18T13:36:17;18.97;;;11.93;;
7334;SDS011;3708;42.632;23.378;2022-12-18T13:48:26;20.40;;;13.17;;
7334;SDS011;3708;42.632;23.378;2022-12-18T13:50:58;18.77;;;12.80;;
7334;SDS011;3708;42.632;23.378;2022-12-18T13:53:30;22.10;;;13.43;;
7334;SDS011;3708;42.632;23.378;2022-12-18T13:56:00;26.43;;;12.17;;
7334;SDS011;3708;42.632;23.378;2022-12-18T13:58:28;20.03;;;12.13;;
7334;SDS011;3708;42.632;23.378;2022-12-18T14:00:55;20.93;;;12.93;;
7334;SDS011;3708;42.632;23.378;2022-12-18T14:03:24;21.60;;;11.83;;
7334;SDS011;3708;42.632;23.378;2022-12-18T14:05:54;19.70;;;11.60;;
7334;SDS011;3708;42.632;23.378;2022-12-18T14:08:26;21.37;;;12.30;;
7334;SDS011;3708;42.632;23.378;2022-12-18T14:10:58;21.17;;;12.30;;
7334;SDS011;3708;42.632;23.378;2022-12-18T14:13:28;22.57;;;13.17;;
7334;SDS011;3708;42.632;23.378;2022-12-18T14:15:59;20.70;;;12.07;;
7334;SDS011;3708;42.632;23.378;2022-12-18T14:18:29;20.57;;;13.23;;
7334;SDS011;3708;42.632;23.378;2022-12-18T14:21:04;28.57;;;14.53;;
7334;SDS011;3708;42.632;23.378;2022-12-18T14:23:33;22.97;;;12.80;;
7334;SDS011;3708;42.632;23.378;2022-12-18T14:26:02;20.63;;;11.70;;
7334;SDS011;3708;42.632;23.378;2022-12-18T14:28:45;17.00;;;10.47;;
7334;SDS011;3708;42.632;23.378;2022-12-18T14:31:16;15.33;;;10.60;;
7334;SDS011;3708;42.632;23.378;2022-12-18T14:33:44;17.37;;;10.13;;
7334;SDS011;3708;42.632;23.378;2022-12-18T14:36:14;15.50;;;9.70;;
7334;SDS011;3708;42.632;23.378;2022-12-18T14:38:47;17.23;;;9.70;;
7334;SDS011;3708;42.632;23.378;2022-12-18T14:41:16;16.03;;;10.30;;
7334;SDS011;3708;42.632;23.378;2022-12-18T14:43:45;19.23;;;10.73;;
7334;SDS011;3708;42.632;23.378;2022-12-18T14:46:30;16.73;;;8.97;;
7334;SDS011;3708;42.632;23.378;2022-12-18T14:49:01;17.97;;;10.17;;
7334;SDS011;3708;42.632;23.378;2022-12-18T14:51:32;16.77;;;9.80;;
7334;SDS011;3708;42.632;23.378;2022-12-18T14:54:01;16.40;;;10.20;;
7334;SDS011;3708;42.632;23.378;2022-12-18T14:56:30;15.67;;;9.60;;
7334;SDS011;3708;42.632;23.378;2022-12-18T14:58:59;15.07;;;10.00;;
7334;SDS011;3708;42.632;23.378;2022-12-18T15:01:29;16.93;;;10.67;;
7334;SDS011;3708;42.632;23.378;2022-12-18T15:03:59;15.87;;;9.30;;
7334;SDS011;3708;42.632;23.378;2022-12-18T15:06:29;19.70;;;10.30;;
7334;SDS011;3708;42.632;23.378;2022-12-18T15:09:00;17.13;;;9.77;;
7334;SDS011;3708;42.632;23.378;2022-12-18T15:11:30;19.07;;;10.70;;
7334;SDS011;3708;42.632;23.378;2022-12-18T15:16:52;18.03;;;9.83;;
7334;SDS011;3708;42.632;23.378;2022-12-18T15:19:25;18.97;;;10.80;;
7334;SDS011;3708;42.632;23.378;2022-12-18T15:22:04;15.93;;;9.80;;
7334;SDS011;3708;42.632;23.378;2022-12-18T15:24:44;18.47;;;10.63;;
7334;SDS011;3708;42.632;23.378;2022-12-18T15:27:20;13.87;;;9.10;;